Time;durP1;ratioP1;P1;durP2;ratioP2;P2;SDS_P1;SDS_P2;PMS_P1;PMS_P2;Temp;Humidity;BMP_temperature;BMP_pressure;BME280_temperature;BME280_humidity;BME280_pressure;Samples;Min_cycle;Max_cycle;Signal;HPM_P1;HPM_P2
2022/06/26 00:02:08;;;;;;;13.38;10.63;;;18.30;99.90;;;;;;5115103;28;20410;-70
2022/06/26 00:04:36;;;;;;;15.80;10.20;;;18.40;99.90;;;;;;5115708;28;20100;-70
2022/06/26 00:07:04;;;;;;;13.93;9.90;;;18.40;99.90;;;;;;5135414;27;20047;-70
2022/06/26 00:09:32;;;;;;;15.25;9.90;;;18.40;99.90;;;;;;5153576;27;20051;-70
2022/06/26 00:11:59;;;;;;;12.60;10.48;;;18.30;99.90;;;;;;5136280;27;20107;-70
2022/06/26 00:14:26;;;;;;;12.02;10.82;;;18.30;99.90;;;;;;5135964;27;20387;-70
2022/06/26 00:16:53;;;;;;;15.23;11.48;;;18.40;99.90;;;;;;5135407;27;20047;-70
2022/06/26 00:19:20;;;;;;;13.50;11.25;;;18.40;99.90;;;;;;5154556;27;20054;-70
2022/06/26 00:21:50;;;;;;;13.77;11.73;;;18.30;99.90;;;;;;5131806;28;20073;-70
2022/06/26 00:24:17;;;;;;;12.15;10.55;;;18.40;99.90;;;;;;5133699;28;20054;-70
2022/06/26 00:26:44;;;;;;;11.95;10.65;;;18.30;99.90;;;;;;5115229;28;20051;-70
2022/06/26 00:29:11;;;;;;;14.52;11.70;;;18.40;99.90;;;;;;5114757;28;20100;-70
2022/06/26 00:31:38;;;;;;;13.50;11.38;;;18.40;99.90;;;;;;5114819;28;20533;-69
2022/06/26 00:34:05;;;;;;;13.40;11.23;;;18.40;99.90;;;;;;5134098;27;20051;-70
2022/06/26 00:36:32;;;;;;;13.18;11.55;;;18.30;99.90;;;;;;5135197;27;20104;-70
2022/06/26 00:39:00;;;;;;;13.40;11.32;;;18.30;99.90;;;;;;5135573;27;20058;-70
2022/06/26 00:41:27;;;;;;;17.63;12.35;;;18.40;99.90;;;;;;5136162;27;20063;-70
2022/06/26 00:43:54;;;;;;;15.02;11.32;;;18.30;99.90;;;;;;5136507;27;20051;-69
2022/06/26 00:46:24;;;;;;;14.98;11.73;;;18.40;99.90;;;;;;5118803;27;20043;-70
2022/06/26 00:48:51;;;;;;;14.35;11.90;;;18.30;99.90;;;;;;5119175;27;20043;-70
2022/06/26 00:51:19;;;;;;;16.67;13.18;;;18.30;99.90;;;;;;5118358;27;20120;-70
2022/06/26 00:53:46;;;;;;;13.50;12.10;;;18.30;99.90;;;;;;5118954;27;20092;-69
2022/06/26 00:56:14;;;;;;;15.02;13.43;;;18.30;99.90;;;;;;5118196;27;20483;-69
2022/06/26 00:58:41;;;;;;;15.70;13.63;;;18.30;99.90;;;;;;5136136;27;20043;-69
2022/06/26 01:01:08;;;;;;;19.23;13.38;;;18.30;99.90;;;;;;5136955;27;20093;-70
2022/06/26 01:03:35;;;;;;;14.90;13.30;;;18.40;99.90;;;;;;5118772;27;20051;-69
2022/06/26 01:06:02;;;;;;;18.17;14.05;;;18.40;99.90;;;;;;5117995;27;20461;-69
2022/06/26 01:08:29;;;;;;;14.68;12.63;;;18.30;99.90;;;;;;5118579;27;20062;-69
2022/06/26 01:10:56;;;;;;;17.33;14.57;;;18.40;99.90;;;;;;5136709;27;20074;-69
2022/06/26 01:13:25;;;;;;;21.33;15.98;;;18.40;99.90;;;;;;5118401;27;20525;-69
2022/06/26 01:15:52;;;;;;;19.65;16.35;;;18.40;99.90;;;;;;5118202;27;20043;-69
2022/06/26 01:18:20;;;;;;;19.10;16.48;;;18.30;99.90;;;;;;5117902;27;20506;-69
2022/06/26 01:20:54;;;;;;;19.80;16.27;;;18.30;99.90;;;;;;5137171;27;20047;-70
2022/06/26 01:23:22;;;;;;;19.58;15.77;;;18.20;99.90;;;;;;5136874;27;20051;-69
2022/06/26 01:25:50;;;;;;;19.23;15.68;;;18.20;99.90;;;;;;5117847;27;20043;-69
2022/06/26 01:28:17;;;;;;;21.52;14.48;;;18.20;99.90;;;;;;5136230;27;20074;-70
2022/06/26 01:30:44;;;;;;;19.38;15.52;;;18.20;99.90;;;;;;5118162;27;20051;-70
2022/06/26 01:33:11;;;;;;;20.30;16.05;;;18.30;99.90;;;;;;5117023;27;20100;-70
2022/06/26 01:35:38;;;;;;;21.15;14.35;;;18.30;99.90;;;;;;5118177;27;20121;-69
2022/06/26 01:38:10;;;;;;;18.35;15.18;;;18.30;99.90;;;;;;5152776;27;20046;-70
2022/06/26 01:40:39;;;;;;;19.95;14.68;;;18.30;99.90;;;;;;5137722;27;20062;-71
2022/06/26 01:43:06;;;;;;;19.25;14.55;;;18.30;99.90;;;;;;5138787;27;20050;-70
2022/06/26 01:45:33;;;;;;;18.48;14.40;;;18.20;99.90;;;;;;5137936;27;20053;-71
2022/06/26 01:48:00;;;;;;;18.58;13.35;;;18.20;99.90;;;;;;5156271;27;20050;-70
2022/06/26 01:50:27;;;;;;;16.38;12.45;;;18.10;99.90;;;;;;5123008;27;20074;-70
2022/06/26 01:52:56;;;;;;;16.90;12.75;;;18.10;99.90;;;;;;5136167;27;20507;-71
2022/06/26 01:55:23;;;;;;;20.27;12.93;;;18.10;99.90;;;;;;5134306;27;20046;-70
2022/06/26 01:57:51;;;;;;;17.45;11.65;;;18.10;99.90;;;;;;5134592;27;20047;-70
2022/06/26 02:00:18;;;;;;;15.88;12.43;;;18.10;99.90;;;;;;5135608;27;20047;-70
2022/06/26 02:02:45;;;;;;;16.08;11.40;;;18.10;99.90;;;;;;5135462;27;20523;-70
2022/06/26 02:05:12;;;;;;;17.52;11.38;;;18.10;99.90;;;;;;5134295;27;20398;-69
2022/06/26 02:07:39;;;;;;;13.40;10.63;;;18.10;99.90;;;;;;5117049;27;20051;-69
2022/06/26 02:15:37;;;;;;;16.65;9.82;;;18.10;99.90;;;;;;5135213;27;20051;-70
2022/06/26 02:18:04;;;;;;;11.15;9.45;;;18.10;99.90;;;;;;5117625;27;20139;-69
2022/06/26 02:20:30;;;;;;;12.77;9.80;;;18.20;99.90;;;;;;5117530;27;20355;-70
2022/06/26 02:22:57;;;;;;;15.10;9.85;;;18.10;99.90;;;;;;5134812;27;20051;-69
2022/06/26 02:25:24;;;;;;;11.75;9.70;;;18.20;99.90;;;;;;5135516;27;20043;-70
2022/06/26 02:27:53;;;;;;;13.98;9.98;;;18.10;99.90;;;;;;5117147;27;20102;-70
2022/06/26 02:30:20;;;;;;;13.48;10.02;;;18.10;99.90;;;;;;5134739;27;20050;-70
2022/06/26 02:32:47;;;;;;;16.92;10.75;;;18.10;99.90;;;;;;5135366;27;20046;-69
2022/06/26 02:35:13;;;;;;;15.02;10.05;;;18.10;99.90;;;;;;5117158;27;20444;-69
2022/06/26 02:37:40;;;;;;;12.98;10.40;;;18.10;99.90;;;;;;5134642;27;20054;-70
2022/06/26 02:40:09;;;;;;;14.82;10.77;;;18.00;99.90;;;;;;5116981;27;20092;-69
2022/06/26 02:42:36;;;;;;;15.15;10.77;;;18.00;99.90;;;;;;5134764;27;20055;-70
2022/06/26 02:45:05;;;;;;;13.50;10.50;;;18.00;99.90;;;;;;5116330;27;20043;-70
2022/06/26 02:47:32;;;;;;;16.17;11.00;;;18.00;99.90;;;;;;5129600;27;20458;-68
2022/06/26 02:49:59;;;;;;;15.27;11.32;;;18.00;99.90;;;;;;5136739;27;20554;-69
2022/06/26 02:52:26;;;;;;;12.32;8.95;;;17.90;99.90;;;;;;5155845;27;20051;-69
2022/06/26 02:54:53;;;;;;;15.32;9.80;;;17.90;99.90;;;;;;5155663;27;20087;-69
2022/06/26 02:57:20;;;;;;;11.23;8.60;;;17.90;99.90;;;;;;5135335;27;20177;-69
2022/06/26 02:59:46;;;;;;;13.95;9.15;;;17.80;99.90;;;;;;5132551;27;20047;-69
2022/06/26 03:02:15;;;;;;;12.27;8.30;;;17.70;99.90;;;;;;5116624;27;20055;-69
2022/06/26 03:04:42;;;;;;;10.70;8.13;;;17.60;99.90;;;;;;5115785;27;20143;-70
2022/06/26 03:07:09;;;;;;;9.82;8.40;;;17.60;99.90;;;;;;5115912;27;20083;-70
2022/06/26 03:09:36;;;;;;;10.75;8.15;;;17.60;99.90;;;;;;5116204;27;20069;-69
2022/06/26 03:12:04;;;;;;;10.07;7.53;;;17.60;99.90;;;;;;5133822;27;20058;-68
2022/06/26 03:14:31;;;;;;;9.18;7.38;;;17.60;99.90;;;;;;5123320;27;20064;-68
2022/06/26 03:16:58;;;;;;;10.18;6.75;;;17.50;99.90;;;;;;5136578;27;20061;-69
2022/06/26 03:19:27;;;;;;;13.00;7.53;;;17.50;99.90;;;;;;5154492;27;20047;-69
2022/06/26 03:21:54;;;;;;;9.98;6.57;;;17.50;99.90;;;;;;5136862;27;20593;-69
2022/06/26 03:24:21;;;;;;;11.60;6.53;;;17.40;99.90;;;;;;5136801;27;20091;-68
2022/06/26 03:26:48;;;;;;;9.32;6.50;;;17.40;99.90;;;;;;5151129;27;20034;-68
2022/06/26 03:29:15;;;;;;;11.25;6.30;;;17.40;99.90;;;;;;5116417;27;20047;-69
2022/06/26 03:31:42;;;;;;;9.93;6.18;;;17.40;99.90;;;;;;5133903;27;20100;-69
2022/06/26 03:34:09;;;;;;;8.52;5.78;;;17.30;99.90;;;;;;5134383;27;20053;-69
2022/06/26 03:36:37;;;;;;;8.85;5.43;;;17.30;99.90;;;;;;5115447;27;20047;-69
2022/06/26 03:39:05;;;;;;;6.90;5.05;;;17.30;99.90;;;;;;5129733;27;20055;-68
2022/06/26 03:41:32;;;;;;;8.32;4.95;;;17.30;99.90;;;;;;5115244;28;20099;-68
2022/06/26 03:43:59;;;;;;;9.73;5.38;;;17.30;99.90;;;;;;5116159;27;20384;-70
2022/06/26 03:46:26;;;;;;;6.20;4.63;;;17.30;99.90;;;;;;5133282;27;20126;-69
2022/06/26 03:48:53;;;;;;;6.75;4.38;;;17.30;99.90;;;;;;5115130;27;20487;-70
2022/06/26 03:51:20;;;;;;;5.68;3.65;;;17.30;99.90;;;;;;5134381;27;20051;-70
2022/06/26 03:53:49;;;;;;;5.95;4.30;;;17.30;99.90;;;;;;5132358;27;20050;-69
2022/06/26 03:56:15;;;;;;;8.27;4.53;;;17.30;99.90;;;;;;5136000;27;20042;-70
2022/06/26 03:58:43;;;;;;;4.60;3.70;;;17.30;99.90;;;;;;5154606;27;20490;-70
2022/06/26 04:01:10;;;;;;;5.63;4.18;;;17.30;99.90;;;;;;5135448;27;20047;-69
2022/06/26 04:03:37;;;;;;;6.40;3.90;;;17.30;99.90;;;;;;5154119;27;20047;-70
2022/06/26 04:06:04;;;;;;;5.43;4.40;;;17.30;99.90;;;;;;5135961;27;20039;-69
2022/06/26 04:08:31;;;;;;;9.38;4.93;;;17.30;99.90;;;;;;5117797;27;20493;-69
2022/06/26 04:10:59;;;;;;;4.75;3.75;;;17.20;99.90;;;;;;5137943;27;20055;-70
2022/06/26 04:13:26;;;;;;;5.80;4.13;;;17.20;99.90;;;;;;5120137;27;20058;-69
2022/06/26 04:15:53;;;;;;;5.68;3.40;;;17.20;99.90;;;;;;5119110;27;20043;-69
2022/06/26 04:18:20;;;;;;;5.88;3.78;;;17.30;99.90;;;;;;5119416;27;20047;-68
2022/06/26 04:20:47;;;;;;;7.55;3.95;;;17.20;99.90;;;;;;5128171;27;20103;-69
2022/06/26 04:23:14;;;;;;;6.50;3.60;;;17.30;99.90;;;;;;5137701;27;20479;-69
2022/06/26 04:25:41;;;;;;;6.78;3.58;;;17.30;99.90;;;;;;5137819;27;20080;-70
2022/06/26 04:28:10;;;;;;;6.95;3.25;;;17.30;99.90;;;;;;5119003;27;20062;-69
2022/06/26 04:30:38;;;;;;;6.35;3.45;;;17.30;99.90;;;;;;5119506;27;20051;-69
2022/06/26 04:33:04;;;;;;;5.35;3.70;;;17.40;99.90;;;;;;5137088;27;20422;-70
2022/06/26 04:35:32;;;;;;;4.88;3.50;;;17.40;99.90;;;;;;5135584;27;20103;-70
2022/06/26 04:37:59;;;;;;;7.13;3.47;;;17.40;99.90;;;;;;5136722;27;20051;-70
2022/06/26 04:40:26;;;;;;;4.38;2.95;;;17.40;99.90;;;;;;5118929;27;20047;-70
2022/06/26 04:42:53;;;;;;;5.97;3.40;;;17.40;99.90;;;;;;5137033;27;20051;-70
2022/06/26 04:45:22;;;;;;;4.95;3.10;;;17.50;99.90;;;;;;5137686;27;20086;-70
2022/06/26 04:47:49;;;;;;;6.60;3.38;;;17.50;99.90;;;;;;5144827;27;20401;-69
2022/06/26 04:50:16;;;;;;;6.22;4.07;;;17.50;99.90;;;;;;5139104;27;20046;-70
2022/06/26 04:52:47;;;;;;;5.43;3.63;;;17.50;99.90;;;;;;5139421;27;20051;-70
2022/06/26 04:55:14;;;;;;;5.43;3.80;;;17.60;99.90;;;;;;5158117;27;20039;-70
2022/06/26 04:57:42;;;;;;;5.13;3.83;;;17.60;99.90;;;;;;5138056;27;20110;-70
2022/06/26 05:00:11;;;;;;;5.57;3.83;;;17.60;99.90;;;;;;5139438;27;20490;-70
2022/06/26 05:02:39;;;;;;;5.75;3.97;;;17.70;99.90;;;;;;5149843;27;20449;-69
2022/06/26 05:05:07;;;;;;;6.25;4.30;;;17.80;99.90;;;;;;5118218;27;20055;-68
2022/06/26 05:07:34;;;;;;;5.32;4.18;;;17.90;99.90;;;;;;5137106;27;20043;-68
2022/06/26 05:10:01;;;;;;;5.20;4.50;;;17.90;99.90;;;;;;5136735;27;20047;-69
2022/06/26 05:12:28;;;;;;;5.50;4.10;;;18.00;99.90;;;;;;5136959;27;20487;-70
2022/06/26 05:14:55;;;;;;;4.38;3.50;;;18.00;99.90;;;;;;5119398;27;20126;-70
2022/06/26 05:17:22;;;;;;;6.07;4.10;;;18.10;99.90;;;;;;5136225;27;20048;-70
2022/06/26 05:19:50;;;;;;;5.40;4.22;;;18.20;99.90;;;;;;5136602;27;20096;-70
2022/06/26 05:22:17;;;;;;;7.43;4.05;;;18.20;99.90;;;;;;5117708;27;20491;-70
2022/06/26 05:24:44;;;;;;;6.75;4.63;;;18.30;99.90;;;;;;5134859;27;20051;-70
2022/06/26 05:27:11;;;;;;;4.88;3.72;;;18.30;99.90;;;;;;5136847;27;20411;-70
2022/06/26 05:29:38;;;;;;;4.15;3.75;;;18.40;99.90;;;;;;5118653;27;20051;-70
2022/06/26 05:32:06;;;;;;;4.90;3.92;;;18.50;99.90;;;;;;5135907;27;20051;-69
2022/06/26 05:34:33;;;;;;;7.20;4.05;;;18.50;99.90;;;;;;5135310;27;20051;-70
2022/06/26 05:37:01;;;;;;;5.90;4.13;;;18.40;99.90;;;;;;5136275;27;20069;-69
2022/06/26 05:39:28;;;;;;;9.35;4.53;;;18.40;99.90;;;;;;5127483;27;20099;-70
2022/06/26 05:41:55;;;;;;;6.28;4.95;;;18.30;99.90;;;;;;5136089;27;20411;-70
2022/06/26 05:44:22;;;;;;;6.75;5.18;;;18.30;99.90;;;;;;5139348;27;20099;-69
2022/06/26 05:46:49;;;;;;;7.25;5.35;;;18.30;99.90;;;;;;5152300;27;20051;-71
2022/06/26 05:49:15;;;;;;;7.15;4.88;;;18.30;99.90;;;;;;5151262;27;20054;-70
2022/06/26 05:51:42;;;;;;;9.05;5.60;;;18.30;99.90;;;;;;5148142;27;20437;-68
2022/06/26 05:54:10;;;;;;;8.88;5.45;;;18.30;99.90;;;;;;5147343;27;20055;-69
2022/06/26 05:56:37;;;;;;;8.30;5.93;;;18.30;99.90;;;;;;5143723;27;20050;-69
2022/06/26 05:59:04;;;;;;;10.32;6.55;;;18.30;99.90;;;;;;5136183;27;20058;-70
2022/06/26 06:01:31;;;;;;;7.95;5.68;;;18.30;99.90;;;;;;5117048;27;20054;-70
2022/06/26 06:03:58;;;;;;;10.35;6.28;;;18.30;99.90;;;;;;5117938;27;20059;-69
2022/06/26 06:06:25;;;;;;;8.57;6.43;;;18.20;99.90;;;;;;5117250;27;20428;-69
2022/06/26 06:08:52;;;;;;;8.85;6.68;;;18.30;99.90;;;;;;5135749;27;20054;-70
2022/06/26 06:11:20;;;;;;;8.15;6.32;;;18.30;99.90;;;;;;5123213;27;20440;-70
2022/06/26 06:13:47;;;;;;;9.23;6.00;;;18.30;99.90;;;;;;5118984;27;20048;-71
2022/06/26 06:16:14;;;;;;;10.88;6.43;;;18.30;99.90;;;;;;5117540;27;20444;-71
2022/06/26 06:18:41;;;;;;;6.72;4.93;;;18.40;99.90;;;;;;5119879;27;20059;-71
2022/06/26 06:21:08;;;;;;;10.10;7.28;;;18.50;99.90;;;;;;5121242;27;20058;-72
2022/06/26 06:23:35;;;;;;;8.75;7.25;;;18.60;99.90;;;;;;5139389;27;20043;-70
2022/06/26 06:26:02;;;;;;;12.25;7.93;;;18.70;99.90;;;;;;5130676;27;20558;-70
2022/06/26 06:28:30;;;;;;;11.10;7.22;;;18.70;99.90;;;;;;5149311;27;20043;-71
2022/06/26 06:30:57;;;;;;;10.30;8.68;;;18.80;99.90;;;;;;5147704;27;20043;-70
2022/06/26 06:33:24;;;;;;;11.52;7.30;;;18.90;99.90;;;;;;5130092;27;20054;-71
2022/06/26 06:35:54;;;;;;;10.20;7.63;;;18.90;99.90;;;;;;5147922;27;20417;-72
2022/06/26 06:38:21;;;;;;;10.27;8.85;;;18.90;99.90;;;;;;5148086;27;20398;-72
2022/06/26 06:40:48;;;;;;;11.60;8.25;;;19.00;99.90;;;;;;5150894;27;20062;-71
2022/06/26 06:43:15;;;;;;;12.63;9.10;;;19.10;99.90;;;;;;5147376;27;20043;-72
2022/06/26 06:45:44;;;;;;;11.70;8.98;;;19.20;99.90;;;;;;5149426;27;20513;-71
2022/06/26 06:48:11;;;;;;;11.73;9.82;;;19.40;99.90;;;;;;5144079;27;20043;-72
2022/06/26 06:50:38;;;;;;;12.60;9.40;;;19.60;99.90;;;;;;5127853;27;20386;-71
2022/06/26 06:53:06;;;;;;;11.50;9.65;;;19.80;99.90;;;;;;5130629;27;20046;-72
2022/06/26 06:55:33;;;;;;;13.90;9.98;;;19.90;99.90;;;;;;5129500;27;20082;-71
2022/06/26 06:58:00;;;;;;;12.93;11.00;;;19.80;99.90;;;;;;5129412;27;20112;-72
2022/06/26 07:00:27;;;;;;;12.20;10.65;;;19.70;99.90;;;;;;5148808;27;20054;-71
2022/06/26 07:03:00;;;;;;;13.40;10.80;;;19.60;99.90;;;;;;5147687;27;20039;-71
2022/06/26 07:05:27;;;;;;;11.93;10.57;;;19.60;99.90;;;;;;5127652;27;20444;-72
2022/06/26 07:07:54;;;;;;;14.30;10.60;;;19.60;99.90;;;;;;5129706;27;20053;-71
2022/06/26 07:10:21;;;;;;;17.08;11.48;;;19.80;99.90;;;;;;5125504;27;20062;-72
2022/06/26 07:12:52;;;;;;;14.63;11.40;;;20.10;99.90;;;;;;5129804;27;20047;-71
2022/06/26 07:15:20;;;;;;;12.57;10.60;;;20.40;99.90;;;;;;5148369;27;20525;-72
2022/06/26 07:17:47;;;;;;;11.50;10.30;;;20.90;99.90;;;;;;5123638;27;20114;-70
2022/06/26 07:20:16;;;;;;;13.45;11.82;;;21.20;99.90;;;;;;5130054;27;20443;-72
2022/06/26 07:22:43;;;;;;;14.88;12.40;;;21.20;99.90;;;;;;5128989;27;20058;-72
2022/06/26 07:25:10;;;;;;;15.10;12.57;;;21.10;99.90;;;;;;5145405;27;20103;-72
2022/06/26 07:27:37;;;;;;;17.60;14.27;;;21.10;99.90;;;;;;5132759;27;20559;-74
2022/06/26 07:30:05;;;;;;;17.33;15.13;;;21.00;99.90;;;;;;5134675;27;20058;-72
2022/06/26 07:32:32;;;;;;;17.80;14.13;;;20.90;99.90;;;;;;5146317;27;20486;-73
2022/06/26 07:34:59;;;;;;;18.98;14.48;;;21.00;99.90;;;;;;5145573;27;20073;-73
2022/06/26 07:37:28;;;;;;;17.25;14.98;;;21.10;99.90;;;;;;5144877;27;20490;-71
2022/06/26 07:39:55;;;;;;;16.25;14.55;;;21.00;99.90;;;;;;5126399;27;20051;-73
2022/06/26 07:42:22;;;;;;;16.75;14.95;;;21.00;99.90;;;;;;5128499;27;20050;-71
2022/06/26 07:44:49;;;;;;;21.25;16.17;;;20.90;99.90;;;;;;5128698;27;20051;-72
2022/06/26 07:47:16;;;;;;;17.33;14.35;;;21.10;99.90;;;;;;5147553;27;20035;-71
2022/06/26 07:49:43;;;;;;;19.70;14.95;;;21.40;99.90;;;;;;5143419;27;20441;-71
2022/06/26 07:52:10;;;;;;;15.63;14.00;;;22.00;99.90;;;;;;5151449;27;20108;-74
2022/06/26 07:54:38;;;;;;;17.48;13.80;;;22.50;99.90;;;;;;5147635;27;20047;-72
2022/06/26 07:57:05;;;;;;;15.50;13.65;;;23.00;99.90;;;;;;5148973;27;20458;-72
2022/06/26 07:59:33;;;;;;;14.52;12.55;;;23.10;99.90;;;;;;5127289;27;20043;-72
2022/06/26 08:02:00;;;;;;;14.60;12.60;;;23.70;99.90;;;;;;5126969;27;20481;-71
2022/06/26 08:04:27;;;;;;;14.55;11.05;;;24.00;99.90;;;;;;5124958;27;20051;-73
2022/06/26 08:06:54;;;;;;;12.40;10.30;;;24.00;99.90;;;;;;5126019;27;20129;-73
2022/06/26 08:09:20;;;;;;;11.43;9.57;;;24.40;99.90;;;;;;5127944;27;20123;-73
2022/06/26 08:11:49;;;;;;;12.15;10.30;;;24.60;99.90;;;;;;5125734;27;20104;-73
2022/06/26 08:14:16;;;;;;;14.15;10.80;;;24.90;99.90;;;;;;5131598;27;20050;-73
2022/06/26 08:16:42;;;;;;;10.38;9.27;;;24.80;99.90;;;;;;5147143;27;20099;-71
2022/06/26 08:19:09;;;;;;;9.55;8.45;;;25.00;99.90;;;;;;5143236;27;20064;-72
2022/06/26 08:24:20;;;;;;;9.75;8.13;;;24.90;99.90;;;;;;5124261;27;20046;-72
2022/06/26 08:26:49;;;;;;;9.68;8.10;;;24.80;99.90;;;;;;5126292;27;20089;-71
2022/06/26 08:29:16;;;;;;;11.00;7.55;;;24.60;99.90;;;;;;5129392;27;20478;-71
2022/06/26 08:31:42;;;;;;;11.85;9.10;;;24.40;99.90;;;;;;5128927;27;20076;-72
2022/06/26 08:34:09;;;;;;;11.00;8.20;;;24.10;99.90;;;;;;5140715;27;20436;-71
2022/06/26 08:36:38;;;;;;;8.27;7.20;;;24.60;99.90;;;;;;5152038;27;20070;-72
2022/06/26 08:39:05;;;;;;;8.80;7.05;;;25.30;99.90;;;;;;5130588;27;20062;-73
2022/06/26 08:41:38;;;;;;;9.00;6.70;;;26.00;99.90;;;;;;5144575;27;20047;-71
2022/06/26 08:44:07;;;;;;;8.15;7.20;;;26.50;99.90;;;;;;5142208;27;20043;-72
2022/06/26 08:46:37;;;;;;;7.97;6.32;;;26.50;99.90;;;;;;5126958;27;20046;-72
2022/06/26 08:49:09;;;;;;;6.80;5.85;;;26.60;99.90;;;;;;5144252;27;20039;-72
2022/06/26 08:51:38;;;;;;;8.70;5.90;;;26.80;99.90;;;;;;5127105;27;20094;-72
2022/06/26 08:54:06;;;;;;;8.13;6.40;;;26.60;99.90;;;;;;5129268;27;20055;-71
2022/06/26 08:56:33;;;;;;;8.20;5.65;;;26.50;99.90;;;;;;5145628;27;20137;-72
2022/06/26 08:59:00;;;;;;;7.57;6.15;;;26.80;99.90;;;;;;5127904;27;20043;-71
2022/06/26 09:01:28;;;;;;;8.23;5.75;;;26.50;99.90;;;;;;5142692;27;20051;-71
2022/06/26 09:03:55;;;;;;;6.85;5.43;;;26.00;99.90;;;;;;5145966;27;20050;-71
2022/06/26 09:06:22;;;;;;;7.65;5.68;;;25.40;99.90;;;;;;5119316;27;20105;-70
2022/06/26 09:08:50;;;;;;;7.43;5.95;;;25.00;99.90;;;;;;5144678;27;20047;-72
2022/06/26 09:11:18;;;;;;;8.80;5.63;;;24.70;99.90;;;;;;5137940;27;20039;-70
2022/06/26 09:13:46;;;;;;;5.82;4.78;;;24.40;99.90;;;;;;5129160;27;20103;-73
2022/06/26 09:16:15;;;;;;;6.72;4.20;;;24.50;99.90;;;;;;5144041;27;20406;-71
2022/06/26 09:18:44;;;;;;;5.15;3.78;;;24.30;99.90;;;;;;5148048;27;20456;-72
2022/06/26 09:21:12;;;;;;;7.23;3.97;;;24.40;99.90;;;;;;5119968;27;20061;-71
2022/06/26 09:23:52;;;;;;;8.63;3.80;;;25.00;99.90;;;;;;5127711;27;20047;-71
2022/06/26 09:26:19;;;;;;;8.63;3.15;;;25.80;99.90;;;;;;5133538;27;20133;-71
2022/06/26 09:28:46;;;;;;;5.15;2.70;;;26.40;99.90;;;;;;5127614;27;20547;-72
2022/06/26 09:31:19;;;;;;;3.30;2.20;;;26.20;98.50;;;;;;5154750;27;20443;-72
2022/06/26 09:33:48;;;;;;;5.68;2.75;;;25.70;97.30;;;;;;5138595;27;20542;-72
2022/06/26 09:36:16;;;;;;;3.13;2.03;;;25.10;97.20;;;;;;5132161;27;20051;-73
2022/06/26 09:38:50;;;;;;;4.68;3.08;;;25.00;97.30;;;;;;5140511;27;20053;-73
2022/06/26 09:41:17;;;;;;;3.75;2.33;;;25.40;97.50;;;;;;5128659;27;20050;-70
2022/06/26 09:43:45;;;;;;;3.58;2.10;;;26.00;98.00;;;;;;5126963;27;20096;-74
2022/06/26 09:46:13;;;;;;;4.82;2.80;;;26.70;97.70;;;;;;5134516;27;20104;-72
2022/06/26 09:48:41;;;;;;;4.70;2.50;;;27.10;96.60;;;;;;5121606;27;20434;-72
2022/06/26 09:51:12;;;;;;;3.63;2.22;;;27.40;95.70;;;;;;5122463;27;20494;-73
2022/06/26 09:53:40;;;;;;;4.95;2.70;;;27.70;94.50;;;;;;5151403;27;20043;-71
2022/06/26 09:56:07;;;;;;;3.38;1.92;;;27.70;93.70;;;;;;5122528;27;20497;-72
2022/06/26 09:58:34;;;;;;;2.97;1.73;;;28.00;92.90;;;;;;5124510;27;20043;-71
2022/06/26 10:06:34;;;;;;;3.35;1.98;;;28.50;90.20;;;;;;5117545;27;20447;-72
2022/06/26 10:09:02;;;;;;;4.05;2.30;;;28.80;89.60;;;;;;5147130;27;20528;-72
2022/06/26 10:11:30;;;;;;;4.35;2.28;;;28.60;89.70;;;;;;5140897;27;20490;-72
2022/06/26 10:14:02;;;;;;;5.10;2.05;;;28.50;90.00;;;;;;5128119;27;20130;-72
2022/06/26 10:16:45;;;;;;;3.53;2.08;;;28.30;90.00;;;;;;5131369;27;20061;-73
2022/06/26 10:19:28;;;;;;;4.88;2.08;;;27.90;88.50;;;;;;5117405;27;20513;-73
2022/06/26 10:21:57;;;;;;;2.45;1.40;;;28.20;84.30;;;;;;5119158;27;20177;-73
2022/06/26 10:24:24;;;;;;;6.22;1.63;;;28.50;84.80;;;;;;5127346;27;20482;-71
2022/06/26 10:26:53;;;;;;;3.90;1.90;;;29.10;85.00;;;;;;5141845;27;20047;-72
2022/06/26 10:29:20;;;;;;;3.70;1.95;;;29.40;84.40;;;;;;5125989;27;20039;-72
2022/06/26 10:31:49;;;;;;;3.08;1.73;;;29.30;82.60;;;;;;5130458;27;20043;-73
2022/06/26 10:34:19;;;;;;;3.80;1.90;;;29.50;82.90;;;;;;5123437;27;20100;-72
2022/06/26 10:37:01;;;;;;;2.97;2.00;;;28.80;82.40;;;;;;5122209;27;20513;-72
2022/06/26 10:39:49;;;;;;;4.13;2.40;;;28.40;83.00;;;;;;5128589;27;20047;-73
2022/06/26 10:45:09;;;;;;;4.35;2.00;;;27.90;85.30;;;;;;5134517;27;20039;-74
2022/06/26 10:47:43;;;;;;;4.63;2.50;;;27.50;87.00;;;;;;5119213;27;20085;-71
2022/06/26 10:50:27;;;;;;;2.72;2.20;;;27.50;86.40;;;;;;5133729;27;20487;-72
2022/06/26 10:52:55;;;;;;;3.67;2.10;;;27.20;87.50;;;;;;5114709;27;20054;-73
2022/06/26 10:55:23;;;;;;;3.55;1.80;;;27.10;85.70;;;;;;5113820;27;20054;-73
2022/06/26 10:57:50;;;;;;;3.75;2.00;;;27.00;85.40;;;;;;5134167;27;20490;-72
2022/06/26 11:00:17;;;;;;;2.63;1.70;;;27.00;86.60;;;;;;5137935;27;20410;-73
2022/06/26 11:02:46;;;;;;;4.03;1.55;;;27.00;84.80;;;;;;5132472;27;20046;-72
2022/06/26 11:05:14;;;;;;;2.88;1.50;;;26.90;82.20;;;;;;5115903;27;20059;-72
2022/06/26 11:07:44;;;;;;;3.40;1.92;;;27.10;83.20;;;;;;5134367;27;20075;-71
2022/06/26 11:10:16;;;;;;;3.50;1.85;;;27.20;83.20;;;;;;5132174;27;20047;-72
2022/06/26 11:12:46;;;;;;;3.47;1.73;;;27.20;83.90;;;;;;5135092;27;20103;-71
2022/06/26 11:15:27;;;;;;;3.63;1.90;;;27.20;82.80;;;;;;5136670;27;20103;-73
2022/06/26 11:18:02;;;;;;;3.63;2.08;;;27.20;82.70;;;;;;5134659;27;20067;-73
2022/06/26 11:20:50;;;;;;;4.80;1.77;;;27.50;83.90;;;;;;5128584;27;20047;-71
2022/06/26 11:23:23;;;;;;;3.30;1.85;;;27.70;83.60;;;;;;5129199;27;20147;-72
2022/06/26 11:25:54;;;;;;;4.25;2.20;;;28.20;82.60;;;;;;5114111;27;20495;-73
2022/06/26 11:28:28;;;;;;;3.50;2.42;;;28.30;81.70;;;;;;5114381;27;20092;-72
2022/06/26 11:30:55;;;;;;;4.05;2.00;;;28.40;80.60;;;;;;5131574;27;20111;-73
2022/06/26 11:33:27;;;;;;;3.35;1.60;;;28.40;82.20;;;;;;5133151;27;20043;-71
2022/06/26 11:35:54;;;;;;;3.83;1.90;;;28.40;81.30;;;;;;5130576;27;20058;-70
2022/06/26 11:38:22;;;;;;;3.58;1.75;;;28.10;80.30;;;;;;5118875;27;20115;-69
2022/06/26 11:40:50;;;;;;;2.55;1.50;;;28.00;80.70;;;;;;5120314;27;20068;-71
2022/06/26 11:43:19;;;;;;;3.60;1.65;;;27.50;81.70;;;;;;5122335;27;20051;-71
2022/06/26 11:45:47;;;;;;;3.67;1.50;;;27.50;81.30;;;;;;5130743;27;20502;-72
2022/06/26 11:48:17;;;;;;;2.92;1.88;;;27.40;80.80;;;;;;5132518;27;20051;-71
2022/06/26 11:50:46;;;;;;;3.88;1.70;;;27.70;80.90;;;;;;5138354;27;20046;-71
2022/06/26 11:53:23;;;;;;;4.43;1.88;;;27.90;80.70;;;;;;5138869;27;20061;-72
2022/06/26 11:55:52;;;;;;;4.28;1.80;;;27.70;80.40;;;;;;5132848;27;20146;-71
2022/06/26 11:58:21;;;;;;;6.70;2.15;;;27.60;80.10;;;;;;5126694;27;20094;-72
2022/06/26 12:00:50;;;;;;;3.28;1.85;;;27.40;79.90;;;;;;5154953;27;20050;-71
2022/06/26 12:03:18;;;;;;;4.93;1.80;;;27.30;81.00;;;;;;5136111;27;20099;-72
2022/06/26 12:05:46;;;;;;;2.70;1.83;;;27.20;81.20;;;;;;5153749;27;20553;-72
2022/06/26 12:08:18;;;;;;;2.67;1.75;;;27.20;81.80;;;;;;5136300;27;20085;-72
2022/06/26 12:10:49;;;;;;;5.03;2.25;;;27.10;80.10;;;;;;5136186;27;20091;-71
2022/06/26 12:13:24;;;;;;;3.70;1.70;;;26.80;81.00;;;;;;5153779;27;20542;-71
2022/06/26 12:15:52;;;;;;;4.82;1.90;;;26.60;81.70;;;;;;5154809;27;20478;-71
2022/06/26 12:18:19;;;;;;;4.50;2.00;;;26.60;82.20;;;;;;5154785;27;20070;-71
2022/06/26 12:20:51;;;;;;;4.20;1.90;;;26.70;81.90;;;;;;5153720;27;20563;-71
2022/06/26 12:23:18;;;;;;;3.33;1.85;;;26.60;81.90;;;;;;5154370;27;20526;-71
2022/06/26 12:25:49;;;;;;;4.30;2.15;;;26.80;82.00;;;;;;5154466;27;20050;-71
2022/06/26 12:28:23;;;;;;;5.13;2.08;;;26.80;82.80;;;;;;5135521;27;20050;-71
2022/06/26 12:30:50;;;;;;;6.30;2.13;;;26.80;82.30;;;;;;5156725;27;20074;-71
2022/06/26 12:33:19;;;;;;;3.85;2.08;;;26.70;83.20;;;;;;5157597;27;20046;-71
2022/06/26 12:35:47;;;;;;;3.95;2.15;;;26.60;82.80;;;;;;5140212;27;20104;-71
2022/06/26 12:38:21;;;;;;;4.22;1.73;;;26.60;82.70;;;;;;5140140;27;20070;-72
2022/06/26 12:40:48;;;;;;;4.15;1.90;;;26.40;82.80;;;;;;5157774;27;20059;-71
2022/06/26 12:43:15;;;;;;;3.15;2.10;;;26.20;82.50;;;;;;5158221;27;20095;-71
2022/06/26 12:45:42;;;;;;;5.20;1.77;;;25.90;82.70;;;;;;5140165;27;20103;-70
2022/06/26 12:48:09;;;;;;;3.20;1.92;;;25.80;83.90;;;;;;5139097;27;20047;-71
2022/06/26 12:50:37;;;;;;;3.38;2.15;;;25.60;84.20;;;;;;5158414;27;20047;-71
2022/06/26 12:53:04;;;;;;;3.67;2.22;;;25.50;85.00;;;;;;5158188;27;20149;-70
2022/06/26 12:55:31;;;;;;;4.38;1.98;;;25.50;85.00;;;;;;5157446;27;20088;-71
2022/06/26 12:57:58;;;;;;;3.83;2.13;;;25.50;85.20;;;;;;5139892;27;20058;-71
2022/06/26 13:00:25;;;;;;;4.97;2.13;;;25.70;84.50;;;;;;5157970;27;20058;-70
2022/06/26 13:02:52;;;;;;;4.93;2.50;;;26.00;84.00;;;;;;5156991;27;20482;-70